Time;durP1;ratioP1;P1;durP2;ratioP2;P2;SDS_P1;SDS_P2;PMS_P1;PMS_P2;Temp;Humidity;BMP_temperature;BMP_pressure;BME280_temperature;BME280_humidity;BME280_pressure;Samples;Min_cycle;Max_cycle;Signal;HPM_P1;HPM_P2
2022/11/28 00:00:52;;;;;;;285.75;168.52;;;;;;;14.92;78.25;98682.38;4966604;28;20128;-63
2022/11/28 00:03:41;;;;;;;301.88;169.25;;;;;;;14.98;77.49;98678.69;4943866;29;20051;-62
2022/11/28 00:06:30;;;;;;;285.00;168.95;;;;;;;14.86;77.76;98686.88;4950604;29;20126;-63
2022/11/28 00:09:20;;;;;;;287.85;166.75;;;;;;;14.87;77.93;98686.63;4953757;28;20053;-64
2022/11/28 00:12:09;;;;;;;302.98;173.10;;;;;;;14.80;78.25;98695.94;4969474;28;20082;-63
2022/11/28 00:14:58;;;;;;;308.50;176.32;;;;;;;14.86;77.89;98692.28;4969876;28;20122;-61
2022/11/28 00:17:47;;;;;;;308.02;178.40;;;;;;;14.85;78.23;98694.16;4948692;28;20067;-61
2022/11/28 00:20:31;;;;;;;312.42;174.07;;;;;;;14.90;77.93;98698.81;4950189;29;20051;-62
2022/11/28 00:23:20;;;;;;;310.73;176.43;;;;;;;14.88;77.85;98685.59;4958653;28;20129;-62
2022/11/28 00:26:13;;;;;;;302.60;175.15;;;;;;;14.88;77.36;98701.78;4964857;28;20055;-63
2022/11/28 00:29:03;;;;;;;303.13;177.82;;;;;;;14.87;77.39;98705.53;4949837;28;20049;-62
2022/11/28 00:31:45;;;;;;;295.05;175.48;;;;;;;14.90;77.38;98706.13;4947967;29;20043;-61
2022/11/28 00:34:34;;;;;;;309.05;178.73;;;;;;;14.88;77.87;98703.66;4949967;29;20110;-63
2022/11/28 00:37:16;;;;;;;305.65;179.32;;;;;;;14.82;77.61;98705.44;4949454;29;20059;-64
2022/11/28 00:40:05;;;;;;;297.35;173.68;;;;;;;14.86;77.56;98705.78;4944271;28;20098;-64
2022/11/28 00:42:47;;;;;;;303.83;178.82;;;;;;;14.86;77.83;98713.88;4950021;28;20529;-64
2022/11/28 00:45:36;;;;;;;312.90;175.98;;;;;;;14.82;77.56;98712.72;4950210;29;20464;-62
2022/11/28 00:48:18;;;;;;;308.45;175.98;;;;;;;14.84;77.71;98716.81;4949604;29;20131;-64
2022/11/28 00:51:16;;;;;;;320.27;180.00;;;;;;;14.75;77.83;98714.75;4930601;29;20048;-61
2022/11/28 00:54:00;;;;;;;308.30;178.85;;;;;;;14.70;78.49;98723.59;4946142;28;20609;-61
2022/11/28 00:56:49;;;;;;;309.30;180.27;;;;;;;14.72;77.71;98724.16;4969188;28;20089;-62
2022/11/28 00:59:31;;;;;;;316.33;180.05;;;;;;;14.72;78.46;98731.47;4960951;28;20062;-65
2022/11/28 01:02:26;;;;;;;319.40;184.50;;;;;;;14.73;78.52;98736.63;4950393;28;20102;-64
2022/11/28 01:05:15;;;;;;;312.42;181.32;;;;;;;14.65;77.83;98740.50;4949285;28;20074;-64
2022/11/28 01:08:04;;;;;;;304.95;176.20;;;;;;;14.63;77.84;98748.03;4937761;28;20046;-64
2022/11/28 01:10:53;;;;;;;312.13;176.10;;;;;;;14.63;78.18;98752.63;4968490;28;20113;-62
2022/11/28 01:13:35;;;;;;;301.67;175.48;;;;;;;14.61;77.68;98758.25;4968543;28;20472;-62
2022/11/28 01:16:24;;;;;;;299.85;169.35;;;;;;;14.67;78.21;98762.72;4930436;29;20550;-63
2022/11/28 01:19:07;;;;;;;294.95;172.90;;;;;;;14.66;77.93;98765.66;4941746;29;20150;-63
2022/11/28 01:21:56;;;;;;;289.05;169.40;;;;;;;14.62;77.65;98768.00;4949003;29;20491;-64
2022/11/28 01:24:39;;;;;;;297.23;171.48;;;;;;;14.62;78.13;98775.31;4955867;28;20138;-63
2022/11/28 01:27:28;;;;;;;298.33;171.98;;;;;;;14.58;78.00;98783.06;4967982;28;20058;-63
2022/11/28 01:30:11;;;;;;;298.63;173.35;;;;;;;14.52;78.13;98794.78;4968241;28;20070;-63
2022/11/28 01:33:06;;;;;;;299.63;172.73;;;;;;;14.59;78.55;98783.88;4968539;28;20462;-63
2022/11/28 01:35:41;;;;;;;298.95;166.98;;;;;;;14.53;77.95;98788.31;4949253;28;20053;-63
2022/11/28 01:38:30;;;;;;;289.88;167.60;;;;;;;14.59;78.63;98800.88;4967958;28;20793;-62
2022/11/28 01:41:21;;;;;;;295.90;168.13;;;;;;;14.60;78.79;98805.25;4966927;28;20149;-66
2022/11/28 01:44:15;;;;;;;297.08;166.75;;;;;;;14.59;78.27;98806.28;4955756;28;20047;-63
2022/11/28 01:47:04;;;;;;;299.17;166.00;;;;;;;14.62;78.04;98816.63;4948610;28;20142;-63
2022/11/28 01:49:48;;;;;;;286.25;163.27;;;;;;;14.72;78.19;98818.72;4964403;28;20051;-65
2022/11/28 01:52:37;;;;;;;302.98;165.70;;;;;;;14.74;78.02;98808.50;4967591;28;20071;-60
2022/11/28 01:55:23;;;;;;;288.98;163.77;;;;;;;14.79;77.47;98821.28;4966907;28;20062;-64
2022/11/28 01:58:13;;;;;;;;;;;;;;;14.83;76.96;98819.75;4951546;28;20423;-61
2022/11/28 02:00:57;;;;;;;277.25;154.40;;;;;;;14.67;78.20;98813.19;4931194;28;19933;-64
2022/11/28 02:03:56;;;;;;;271.25;158.30;;;;;;;14.71;78.24;98822.47;4943975;29;20047;-64
2022/11/28 02:06:38;;;;;;;272.42;157.88;;;;;;;14.78;77.97;98825.03;4948235;29;20137;-65
2022/11/28 02:09:27;;;;;;;284.90;162.40;;;;;;;14.87;76.64;98839.84;4956591;28;20082;-63
2022/11/28 02:12:41;;;;;;;299.30;167.07;;;;;;;14.84;77.89;98840.28;4967445;28;20067;-65
2022/11/28 02:16:12;;;;;;;276.08;156.80;;;;;;;14.86;77.83;98848.97;4967527;28;20113;-60
2022/11/28 02:19:15;;;;;;;284.10;163.27;;;;;;;14.96;77.82;98857.31;4967358;28;20073;-64
2022/11/28 02:22:15;;;;;;;297.42;167.50;;;;;;;14.93;77.76;98855.09;4959452;28;20125;-61
2022/11/28 02:25:37;;;;;;;284.08;165.98;;;;;;;15.04;78.21;98865.03;4948249;29;20145;-61
2022/11/28 02:28:41;;;;;;;282.60;161.93;;;;;;;15.23;77.99;98873.00;4964036;28;20050;-65
2022/11/28 02:31:51;;;;;;;288.20;160.65;;;;;;;15.32;77.97;98873.41;4931661;28;20234;-65
2022/11/28 02:34:58;;;;;;;283.67;163.23;;;;;;;15.41;77.26;98878.19;4947360;28;20147;-61
2022/11/28 02:37:56;;;;;;;293.30;165.43;;;;;;;15.55;76.99;98873.31;4929029;29;20133;-64
2022/11/28 02:41:04;;;;;;;286.30;166.50;;;;;;;15.55;77.16;98884.13;4914393;29;20149;-64
2022/11/28 02:44:03;;;;;;;303.08;169.52;;;;;;;15.57;76.99;98887.44;4945999;28;20050;-64
2022/11/28 02:47:11;;;;;;;282.55;163.25;;;;;;;15.60;77.77;98886.13;4962536;28;20066;-63
2022/11/28 02:50:34;;;;;;;294.95;167.88;;;;;;;15.72;77.86;98894.97;4947445;28;20054;-65
2022/11/28 02:53:15;;;;;;;303.73;166.75;;;;;;;15.78;77.04;98894.06;4944953;28;20055;-63
2022/11/28 02:56:05;;;;;;;300.63;168.45;;;;;;;15.85;77.54;98886.59;4945479;29;20043;-62
2022/11/28 02:58:54;;;;;;;301.65;175.82;;;;;;;15.99;77.36;98899.81;4945337;28;20051;-62
2022/11/28 03:01:38;;;;;;;297.98;174.43;;;;;;;16.06;77.27;98900.47;4946300;28;20051;-62
2022/11/28 03:05:02;;;;;;;299.30;170.50;;;;;;;16.22;76.55;98913.22;4946671;28;20138;-62
2022/11/28 03:07:50;;;;;;;306.38;173.20;;;;;;;16.37;76.17;98920.75;4914248;29;20521;-62
2022/11/28 03:11:03;;;;;;;305.67;172.80;;;;;;;16.47;75.50;98922.81;4947689;28;20059;-64
2022/11/28 03:14:08;;;;;;;320.35;175.10;;;;;;;16.64;76.16;98918.19;4943978;29;20048;-60
2022/11/28 03:17:03;;;;;;;314.50;169.77;;;;;;;16.73;77.17;98910.44;4930343;29;20555;-62
2022/11/28 03:19:57;;;;;;;317.00;169.05;;;;;;;17.04;76.47;98924.44;4947549;29;20047;-63
2022/11/28 03:22:56;;;;;;;309.70;174.57;;;;;;;17.24;73.95;98926.63;4935243;29;20067;-62
2022/11/28 03:25:49;;;;;;;302.13;161.52;;;;;;;17.55;74.02;98935.94;4945400;28;20067;-64
2022/11/28 03:28:46;;;;;;;284.60;157.90;;;;;;;17.88;73.61;98946.91;4957472;28;20074;-70
2022/11/28 03:31:41;;;;;;;296.33;161.45;;;;;;;18.24;72.78;98952.66;4966204;28;20094;-66
2022/11/28 03:34:37;;;;;;;263.05;148.18;;;;;;;18.67;70.73;98959.81;4930258;29;20137;-65
2022/11/28 03:37:36;;;;;;;269.65;143.55;;;;;;;18.78;70.11;98961.53;4955036;28;20050;-67
2022/11/28 03:40:33;;;;;;;238.07;136.95;;;;;;;19.22;68.32;98954.19;4965674;28;20087;-66
2022/11/28 03:43:27;;;;;;;229.60;129.50;;;;;;;19.67;66.59;98961.69;4930000;29;20444;-65
2022/11/28 03:46:22;;;;;;;209.20;123.32;;;;;;;20.37;61.15;98963.22;4927540;29;20058;-64
2022/11/28 03:49:08;;;;;;;198.88;119.68;;;;;;;20.70;60.45;98980.97;4941888;29;20061;-65
2022/11/28 03:52:11;;;;;;;201.67;121.70;;;;;;;20.80;62.52;98980.13;4947323;29;20122;-64
2022/11/28 03:55:01;;;;;;;206.32;120.72;;;;;;;21.68;60.09;98987.81;4944583;28;20066;-65
2022/11/28 03:58:08;;;;;;;206.00;125.00;;;;;;;21.90;60.75;98978.44;4946615;28;20542;-64
2022/11/28 04:01:15;;;;;;;204.63;119.53;;;;;;;21.68;58.87;98993.28;4947732;28;20070;-64
2022/11/28 04:04:19;;;;;;;208.23;119.93;;;;;;;21.94;57.56;99001.34;4935286;28;20055;-64
2022/11/28 04:07:43;;;;;;;195.82;120.03;;;;;;;22.08;59.61;99007.81;4945805;28;20143;-64
2022/11/28 04:10:44;;;;;;;191.50;117.82;;;;;;;22.18;58.22;99003.41;4943162;28;20047;-64
2022/11/28 04:13:44;;;;;;;189.95;112.65;;;;;;;22.45;55.00;99005.69;4945992;28;20470;-64
2022/11/28 04:17:21;;;;;;;194.50;116.13;;;;;;;22.51;55.11;99009.19;4945597;28;20047;-65
2022/11/28 04:20:30;;;;;;;213.18;118.90;;;;;;;22.82;54.51;99013.31;4944444;29;20075;-65
2022/11/28 04:23:16;;;;;;;201.93;121.20;;;;;;;22.76;55.68;99017.22;4943361;28;20047;-65
2022/11/28 04:26:16;;;;;;;198.02;118.45;;;;;;;22.53;55.85;99029.72;4948048;28;20117;-66
2022/11/28 04:29:03;;;;;;;213.02;123.47;;;;;;;22.70;58.20;99029.31;4946287;29;20287;-65
2022/11/28 04:31:56;;;;;;;202.90;123.93;;;;;;;22.68;56.07;99037.00;4949763;29;20521;-64
2022/11/28 04:34:43;;;;;;;200.95;121.72;;;;;;;23.01;55.72;99040.78;4959334;28;20284;-68
2022/11/28 04:37:34;;;;;;;206.65;121.35;;;;;;;23.13;55.31;99043.19;4949963;28;20057;-66
2022/11/28 04:40:17;;;;;;;202.27;120.10;;;;;;;23.32;55.00;99040.53;4949338;28;20043;-68
2022/11/28 04:43:23;;;;;;;215.65;122.57;;;;;;;23.19;57.19;99047.50;4933214;29;20047;-66
2022/11/28 04:46:14;;;;;;;186.32;114.53;;;;;;;23.28;57.00;99053.16;4949572;28;20374;-65
2022/11/28 04:49:04;;;;;;;185.27;112.25;;;;;;;23.24;55.55;99050.19;4949016;28;20047;-66
2022/11/28 04:51:58;;;;;;;185.00;111.07;;;;;;;23.10;58.34;99060.19;4948349;29;20464;-63
2022/11/28 04:54:59;;;;;;;184.25;107.80;;;;;;;23.09;56.66;99053.06;4938097;29;20047;-63
2022/11/28 04:57:57;;;;;;;180.15;108.60;;;;;;;23.00;57.64;99050.09;4932553;29;20142;-65
2022/11/28 05:00:43;;;;;;;185.38;109.28;;;;;;;23.10;57.97;99059.34;4929646;28;20525;-65
2022/11/28 05:03:32;;;;;;;177.73;109.20;;;;;;;23.20;56.48;99049.13;4948359;28;20079;-65
2022/11/28 05:06:31;;;;;;;179.32;111.20;;;;;;;23.34;54.60;99053.94;4947259;28;20075;-63
2022/11/28 05:09:20;;;;;;;187.52;108.65;;;;;;;23.47;54.61;99042.28;4946562;28;20059;-64
2022/11/28 05:12:10;;;;;;;174.82;102.82;;;;;;;23.29;55.30;99052.03;4945501;28;20051;-66
2022/11/28 05:14:52;;;;;;;178.90;104.55;;;;;;;23.32;54.33;99043.25;4948011;28;20138;-67
2022/11/28 05:17:41;;;;;;;182.07;104.15;;;;;;;23.45;54.87;99041.75;4947273;28;20051;-66
2022/11/28 05:20:37;;;;;;;173.43;100.60;;;;;;;23.54;53.49;99036.44;4947003;28;20078;-66
2022/11/28 05:23:12;;;;;;;181.52;104.65;;;;;;;23.42;53.29;99032.19;4946613;28;20106;-65
2022/11/28 05:26:14;;;;;;;180.88;103.25;;;;;;;23.56;52.60;99043.28;4947799;29;20110;-65
2022/11/28 05:28:50;;;;;;;176.90;102.68;;;;;;;23.82;50.75;99040.25;4961586;28;20098;-66
2022/11/28 05:31:45;;;;;;;169.35;98.35;;;;;;;23.92;51.94;99042.03;4951057;28;20091;-66
2022/11/28 05:34:20;;;;;;;165.63;96.55;;;;;;;24.10;52.33;99037.72;4967720;28;20534;-65
2022/11/28 05:37:16;;;;;;;155.02;92.05;;;;;;;24.14;52.40;99031.31;4967341;28;20145;-63
2022/11/28 05:39:51;;;;;;;162.65;94.95;;;;;;;24.22;52.32;99029.84;4966768;28;20042;-61
2022/11/28 05:42:47;;;;;;;158.60;91.20;;;;;;;24.45;50.47;99028.13;4959261;28;20070;-63
2022/11/28 05:45:22;;;;;;;150.02;88.22;;;;;;;24.41;52.72;99024.34;4928186;29;20071;-60
2022/11/28 05:48:19;;;;;;;157.60;90.68;;;;;;;24.03;48.48;99024.34;4932252;29;20048;-67
2022/11/28 05:50:54;;;;;;;136.73;79.50;;;;;;;24.22;48.40;99021.63;4939181;28;20058;-67
2022/11/28 05:53:51;;;;;;;141.98;82.45;;;;;;;24.70;52.20;99024.19;4946112;29;20051;-63
2022/11/28 05:56:26;;;;;;;137.70;83.30;;;;;;;24.87;51.40;99028.31;4963649;28;20121;-64
2022/11/28 05:59:22;;;;;;;121.50;75.93;;;;;;;24.65;47.96;99016.06;4951528;28;20653;-64
2022/11/28 06:02:05;;;;;;;122.70;74.85;;;;;;;24.68;49.19;99023.66;4947525;28;20129;-64
2022/11/28 06:04:54;;;;;;;104.95;64.13;;;;;;;24.54;46.19;99011.84;4945896;29;20059;-64
2022/11/28 06:08:01;;;;;;;116.22;68.18;;;;;;;25.04;47.63;99012.06;4947868;29;20066;-64
2022/11/28 06:10:57;;;;;;;125.90;72.68;;;;;;;25.14;46.04;99006.38;4963252;28;20059;-64
2022/11/28 06:13:49;;;;;;;122.07;75.03;;;;;;;25.30;48.95;99004.22;4948333;28;20069;-65
2022/11/28 06:16:40;;;;;;;114.90;71.70;;;;;;;25.36;47.15;98996.69;4946340;28;20516;-66
2022/11/28 06:19:29;;;;;;;118.43;71.47;;;;;;;24.91;48.86;98999.13;4946277;28;20074;-66
2022/11/28 06:22:18;;;;;;;116.50;69.45;;;;;;;25.01;47.92;98997.03;4949330;28;20075;-65
2022/11/28 06:25:00;;;;;;;126.00;73.13;;;;;;;24.96;50.72;98996.31;4952006;28;20053;-64
2022/11/28 06:27:49;;;;;;;116.72;69.40;;;;;;;24.93;50.11;98989.47;4961177;28;20055;-66
2022/11/28 06:30:38;;;;;;;117.75;67.20;;;;;;;25.02;49.41;98992.34;4942567;28;20070;-64
2022/11/28 06:33:27;;;;;;;102.38;62.63;;;;;;;24.86;46.72;98977.25;4945686;28;20058;-65
2022/11/28 06:36:18;;;;;;;109.35;64.53;;;;;;;25.01;46.86;98979.72;4946813;28;20051;-67
2022/11/28 06:39:00;;;;;;;110.28;64.60;;;;;;;25.02;46.39;98975.88;4920893;29;20055;-66
2022/11/28 06:41:50;;;;;;;103.57;62.83;;;;;;;25.23;49.13;98973.59;4947044;28;20051;-67
2022/11/28 06:44:32;;;;;;;103.68;64.47;;;;;;;25.09;49.51;98969.97;4966586;28;20062;-65
2022/11/28 06:47:21;;;;;;;106.00;64.43;;;;;;;25.15;47.38;98975.06;4966547;28;20055;-65
2022/11/28 06:50:03;;;;;;;108.95;66.68;;;;;;;25.19;49.08;98965.09;4946727;28;20402;-65
2022/11/28 06:52:52;;;;;;;106.85;65.43;;;;;;;25.28;46.61;98953.44;4947634;28;20066;-65
2022/11/28 06:55:41;;;;;;;113.82;65.72;;;;;;;25.37;48.39;98948.84;4960965;28;20070;-65
2022/11/28 06:58:30;;;;;;;108.03;66.93;;;;;;;25.03;46.81;98958.28;4966424;28;20074;-65
2022/11/28 07:01:18;;;;;;;115.57;70.40;;;;;;;25.18;47.48;98958.00;4963989;28;20132;-65
2022/11/28 07:04:07;;;;;;;124.05;70.97;;;;;;;25.03;46.00;98950.06;4935884;28;20047;-65
2022/11/28 07:06:49;;;;;;;129.45;76.32;;;;;;;25.00;45.43;98945.97;4964426;28;20058;-66
2022/11/28 07:09:39;;;;;;;125.13;71.88;;;;;;;25.13;47.39;98933.38;4964128;28;20483;-67
2022/11/28 07:12:22;;;;;;;119.53;71.07;;;;;;;25.02;45.91;98942.91;4945860;28;20068;-67
2022/11/28 07:15:14;;;;;;;119.93;72.50;;;;;;;25.24;46.48;98941.44;4951617;28;20088;-68
2022/11/28 07:17:56;;;;;;;115.15;66.07;;;;;;;25.24;45.88;98935.94;4950938;28;20504;-67
2022/11/28 07:20:46;;;;;;;110.60;65.60;;;;;;;25.13;45.51;98932.56;4945236;28;20078;-64
2022/11/28 07:23:28;;;;;;;106.68;63.05;;;;;;;25.33;45.22;98932.16;4945803;28;20558;-65
2022/11/28 07:26:20;;;;;;;96.25;58.05;;;;;;;25.33;43.49;98926.66;4946868;28;20142;-68
2022/11/28 07:28:57;;;;;;;96.15;58.55;;;;;;;25.34;44.10;98922.81;4946835;28;20735;-67
2022/11/28 07:31:53;;;;;;;104.88;59.55;;;;;;;25.28;45.34;98920.47;4945657;28;20618;-67
2022/11/28 07:34:28;;;;;;;130.13;70.78;;;;;;;25.30;44.80;98920.97;4944839;29;20051;-67
2022/11/28 07:37:24;;;;;;;112.70;65.60;;;;;;;25.45;43.87;98917.94;4947547;28;20551;-66
2022/11/28 07:40:00;;;;;;;106.07;60.63;;;;;;;25.33;43.13;98914.88;4944598;29;20134;-67
2022/11/28 07:42:50;;;;;;;101.63;60.10;;;;;;;24.86;42.53;98914.13;4944423;28;20059;-68
2022/11/28 07:45:32;;;;;;;94.15;57.10;;;;;;;25.34;44.56;98913.75;4947661;28;20055;-67
2022/11/28 07:48:40;;;;;;;94.35;58.28;;;;;;;25.76;44.96;98906.25;4938972;28;20053;-66
2022/11/28 07:51:27;;;;;;;94.90;57.05;;;;;;;25.67;42.59;98908.91;4944093;28;20058;-67
2022/11/28 07:54:22;;;;;;;93.95;58.03;;;;;;;25.76;43.57;98900.75;4947312;28;20126;-65
2022/11/28 07:56:57;;;;;;;110.78;60.70;;;;;;;25.73;44.10;98901.38;4946933;28;20047;-64
2022/11/28 07:59:54;;;;;;;96.72;60.20;;;;;;;25.69;43.61;98905.84;4945373;28;20063;-67
2022/11/28 08:02:46;;;;;;;105.85;60.90;;;;;;;25.30;45.15;98907.22;4601119;28;10000433;-65
2022/11/28 08:05:35;;;;;;;106.20;65.95;;;;;;;25.32;43.38;98902.28;4930184;29;20060;-67
2022/11/28 08:08:17;;;;;;;113.68;69.35;;;;;;;25.27;43.12;98892.19;4930035;29;20062;-65
2022/11/28 08:11:08;;;;;;;113.40;68.07;;;;;;;25.30;45.14;98893.50;4945914;29;20174;-66
2022/11/28 08:13:51;;;;;;;121.72;70.95;;;;;;;25.32;44.68;98891.28;4945662;28;20051;-64
2022/11/28 08:16:43;;;;;;;122.70;74.70;;;;;;;25.47;42.94;98890.94;4948508;28;20155;-65
2022/11/28 08:19:26;;;;;;;126.32;72.30;;;;;;;25.42;45.55;98882.81;4944170;28;20058;-67
2022/11/28 08:22:15;;;;;;;117.28;72.53;;;;;;;25.49;45.46;98883.22;4949402;29;20232;-66
2022/11/28 08:25:04;;;;;;;125.28;68.70;;;;;;;25.45;43.77;98879.47;4946988;28;20082;-65
2022/11/28 08:27:46;;;;;;;106.55;65.05;;;;;;;25.38;45.00;98870.81;4947335;28;20055;-65
2022/11/28 08:30:35;;;;;;;117.40;67.10;;;;;;;25.35;45.37;98868.66;4946891;28;20115;-66
2022/11/28 08:33:17;;;;;;;128.20;72.72;;;;;;;25.24;45.17;98867.25;4948538;28;20479;-66
2022/11/28 08:36:06;;;;;;;121.65;74.50;;;;;;;25.35;44.76;98865.94;4948585;28;20051;-66
2022/11/28 08:38:48;;;;;;;123.88;72.30;;;;;;;25.34;45.24;98864.31;4948620;28;20055;-67
2022/11/28 08:41:58;;;;;;;140.60;72.97;;;;;;;25.39;46.27;98862.28;4948482;29;20051;-66
2022/11/28 08:44:41;;;;;;;118.05;68.78;;;;;;;25.38;45.57;98868.06;4948410;29;20055;-65
2022/11/28 08:47:30;;;;;;;107.00;65.80;;;;;;;25.34;44.78;98865.13;4948954;28;20503;-65
2022/11/28 08:50:25;;;;;;;107.82;61.67;;;;;;;25.38;46.91;98863.38;4948835;29;20134;-65
2022/11/28 08:53:00;;;;;;;114.15;65.13;;;;;;;25.26;45.97;98862.28;4948727;29;20055;-65
2022/11/28 08:55:56;;;;;;;107.72;67.28;;;;;;;25.18;45.04;98859.13;4948704;28;20051;-65
2022/11/28 08:58:31;;;;;;;112.07;63.70;;;;;;;25.24;45.48;98864.50;4948607;28;20083;-66
2022/11/28 09:01:30;;;;;;;112.85;65.47;;;;;;;25.05;45.95;98857.19;4946989;28;20574;-65
2022/11/28 09:04:19;;;;;;;110.82;64.90;;;;;;;25.21;45.36;98863.97;4932862;28;20039;-66
2022/11/28 09:07:09;;;;;;;120.45;66.70;;;;;;;25.21;45.88;98854.94;4932224;29;20047;-65
2022/11/28 09:09:51;;;;;;;120.05;67.70;;;;;;;25.17;46.05;98846.50;4948030;28;20333;-65
2022/11/28 09:12:40;;;;;;;110.40;64.88;;;;;;;25.13;46.30;98850.97;4946583;28;20143;-64
2022/11/28 09:15:22;;;;;;;114.18;68.53;;;;;;;25.17;46.17;98853.94;4947098;28;20059;-67
2022/11/28 09:18:12;;;;;;;123.72;70.68;;;;;;;25.09;46.25;98858.22;4944605;29;20730;-67
2022/11/28 09:21:01;;;;;;;121.68;68.85;;;;;;;25.07;47.27;98846.72;4945023;28;20170;-65
2022/11/28 09:23:52;;;;;;;127.90;69.97;;;;;;;25.12;46.40;98843.03;4946707;28;20051;-66
2022/11/28 09:26:35;;;;;;;129.05;71.55;;;;;;;24.92;47.92;98844.28;4944294;28;20062;-66
2022/11/28 09:29:24;;;;;;;130.38;73.18;;;;;;;24.99;47.27;98841.94;4944744;29;20047;-65
2022/11/28 09:32:06;;;;;;;135.25;76.68;;;;;;;24.90;48.28;98835.56;4957200;28;20062;-65
2022/11/28 09:34:55;;;;;;;132.70;73.65;;;;;;;24.87;47.46;98836.97;4962920;28;20044;-65
2022/11/28 09:37:37;;;;;;;125.32;73.20;;;;;;;24.85;48.50;98835.66;4945588;29;20051;-64
2022/11/28 09:40:50;;;;;;;122.90;71.65;;;;;;;24.75;48.54;98837.47;4950480;28;20055;-64
2022/11/28 09:43:37;;;;;;;121.45;72.65;;;;;;;24.69;48.38;98838.69;4965621;28;20047;-66
2022/11/28 09:46:37;;;;;;;116.70;67.57;;;;;;;24.70;48.53;98834.81;4945676;29;20149;-65
2022/11/28 09:49:29;;;;;;;122.28;64.63;;;;;;;24.88;48.54;98832.28;4944844;29;20142;-64
2022/11/28 09:53:05;;;;;;;123.05;63.50;;;;;;;24.88;48.08;98826.78;4944631;28;20051;-65
2022/11/28 09:56:04;;;;;;;118.68;62.53;;;;;;;24.73;48.65;98828.72;4907101;29;20484;-66
2022/11/28 09:58:45;;;;;;;107.63;61.72;;;;;;;24.68;48.50;98828.81;4944433;28;20134;-64
2022/11/28 10:01:49;;;;;;;121.57;63.25;;;;;;;24.70;48.87;98837.56;4940814;28;20051;-64
2022/11/28 10:05:11;;;;;;;112.45;58.38;;;;;;;24.66;48.01;98827.50;4944677;29;20775;-66
2022/11/28 10:08:00;;;;;;;100.95;58.78;;;;;;;24.68;47.49;98834.31;4937265;28;20087;-65
2022/11/28 10:11:00;;;;;;;108.38;58.55;;;;;;;24.56;48.26;98834.00;4928607;29;20130;-65
2022/11/28 10:14:15;;;;;;;107.22;58.95;;;;;;;24.41;50.75;98833.13;4946012;28;20465;-65
2022/11/28 10:17:13;;;;;;;108.45;60.40;;;;;;;24.40;50.29;98827.94;4944416;29;20066;-65
2022/11/28 10:20:05;;;;;;;;;;;;;;;24.37;53.55;98834.84;4928090;29;20055;-65
2022/11/28 10:22:57;;;;;;;120.00;61.60;;;;;;;24.24;53.65;98822.75;4942579;28;20076;-65
2022/11/28 10:26:06;;;;;;;110.47;62.72;;;;;;;24.20;52.95;98829.13;4942527;28;20126;-65
2022/11/28 10:28:51;;;;;;;119.30;64.97;;;;;;;24.11;53.20;98826.25;4944264;28;20050;-65
2022/11/28 10:31:48;;;;;;;138.45;69.07;;;;;;;24.11;51.88;98825.44;4943665;28;20055;-65
2022/11/28 10:34:44;;;;;;;131.73;66.68;;;;;;;24.03;53.67;98824.22;4943988;28;20070;-64
2022/11/28 10:37:49;;;;;;;130.23;67.90;;;;;;;23.87;54.43;98825.59;4945865;28;20225;-63
2022/11/28 10:40:41;;;;;;;127.97;68.63;;;;;;;23.77;54.74;98826.53;4921321;29;20054;-63
2022/11/28 10:44:02;;;;;;;129.63;69.55;;;;;;;23.71;53.82;98830.47;4946761;29;20085;-64
2022/11/28 10:46:53;;;;;;;129.07;65.18;;;;;;;23.65;54.37;98825.06;4944942;29;20138;-63
2022/11/28 10:50:00;;;;;;;126.60;68.05;;;;;;;23.62;55.27;98831.13;4946024;28;20137;-64
2022/11/28 10:52:58;;;;;;;123.40;67.88;;;;;;;23.50;56.60;98832.69;4946173;28;20388;-62
2022/11/28 10:56:20;;;;;;;124.63;68.35;;;;;;;23.46;56.10;98827.00;4946338;29;20055;-63
2022/11/28 10:59:08;;;;;;;122.28;64.10;;;;;;;23.44;55.67;98831.94;4944135;29;20574;-64
2022/11/28 11:02:05;;;;;;;116.95;66.43;;;;;;;23.34;56.94;98830.19;4949163;28;21399;-63
2022/11/28 11:04:41;;;;;;;128.43;67.85;;;;;;;23.17;59.53;98827.13;4956653;28;20058;-63
2022/11/28 11:07:32;;;;;;;129.55;66.18;;;;;;;23.04;58.83;98831.38;4957416;28;20058;-63
2022/11/28 11:10:26;;;;;;;123.93;64.90;;;;;;;22.97;58.87;98828.19;4959083;28;20054;-63
2022/11/28 11:13:22;;;;;;;128.25;66.53;;;;;;;22.87;59.26;98832.69;4958276;28;20057;-64
2022/11/28 11:16:15;;;;;;;130.90;66.15;;;;;;;22.73;59.35;98820.78;4953926;28;20117;-64
2022/11/28 11:18:57;;;;;;;125.82;66.70;;;;;;;22.60;59.35;98832.44;4952385;28;20071;-63
2022/11/28 11:21:46;;;;;;;115.18;67.13;;;;;;;22.51;60.54;98832.25;4954132;28;20074;-63
2022/11/28 11:24:28;;;;;;;111.97;65.15;;;;;;;22.39;60.02;98831.84;4936496;29;20095;-63
2022/11/28 11:27:27;;;;;;;136.63;65.10;;;;;;;22.28;60.60;98834.69;4945588;29;20055;-63
2022/11/28 11:30:23;;;;;;;124.00;65.05;;;;;;;22.28;61.33;98822.94;4946093;29;20047;-62
2022/11/28 11:33:21;;;;;;;142.70;65.78;;;;;;;22.23;61.83;98833.88;4946380;28;20436;-63
2022/11/28 11:36:05;;;;;;;134.18;64.15;;;;;;;22.21;61.77;98825.16;4947892;28;20059;-62
2022/11/28 11:38:54;;;;;;;144.25;66.00;;;;;;;22.02;61.75;98823.13;4949588;29;20550;-62
2022/11/28 11:41:38;;;;;;;131.27;64.32;;;;;;;21.97;62.04;98828.63;4953760;28;20729;-63
2022/11/28 11:44:40;;;;;;;137.98;66.85;;;;;;;21.85;62.26;98826.25;4951200;28;20074;-62
2022/11/28 11:47:43;;;;;;;114.53;61.45;;;;;;;21.80;62.29;98828.22;4950944;28;20051;-62
2022/11/28 11:50:37;;;;;;;122.57;62.63;;;;;;;21.68;61.63;98829.38;4948298;28;20117;-62
2022/11/28 11:53:20;;;;;;;117.10;60.72;;;;;;;21.65;61.80;98829.97;4934786;28;20483;-61
2022/11/28 11:56:10;;;;;;;116.55;62.42;;;;;;;21.55;62.31;98830.03;4950477;28;20253;-64
2022/11/28 11:58:55;;;;;;;130.67;64.50;;;;;;;21.47;62.04;98827.91;4933991;28;20042;-62
2022/11/28 12:01:54;;;;;;;118.97;60.95;;;;;;;21.43;62.47;98832.28;4949404;28;20519;-63
2022/11/28 12:04:48;;;;;;;112.97;60.40;;;;;;;21.33;62.63;98829.63;4952068;28;20051;-63
2022/11/28 12:07:47;;;;;;;118.75;61.90;;;;;;;21.23;62.79;98830.50;4953868;28;20134;-63
2022/11/28 12:10:40;;;;;;;119.47;59.63;;;;;;;21.14;62.64;98834.91;4949575;28;20046;-63
2022/11/28 12:13:30;;;;;;;120.32;62.40;;;;;;;21.05;63.32;98835.47;4949640;28;20129;-64
2022/11/28 12:16:43;;;;;;;112.80;62.33;;;;;;;21.05;63.72;98830.00;4636510;28;10001011;-63
2022/11/28 12:19:41;;;;;;;117.85;64.88;;;;;;;20.96;63.71;98830.88;4966091;28;20305;-62
2022/11/28 12:23:07;;;;;;;131.02;63.13;;;;;;;20.86;64.44;98839.91;4929629;28;20506;-62
2022/11/28 12:25:55;;;;;;;119.55;62.85;;;;;;;20.75;65.47;98844.59;4947547;28;20238;-63
2022/11/28 12:28:56;;;;;;;135.82;68.60;;;;;;;20.72;65.73;98845.16;4944189;28;20134;-62
2022/11/28 12:31:52;;;;;;;127.05;68.15;;;;;;;20.58;66.44;98850.34;4940146;29;20086;-63
2022/11/28 12:35:02;;;;;;;125.25;71.25;;;;;;;20.59;66.90;98851.16;4947966;29;20047;-64
2022/11/28 12:37:57;;;;;;;126.68;67.72;;;;;;;20.47;67.54;98849.53;4947541;28;20138;-63
2022/11/28 12:41:31;;;;;;;138.15;71.07;;;;;;;20.44;68.32;98852.81;4944963;28;20138;-63
2022/11/28 12:44:38;;;;;;;125.53;69.05;;;;;;;20.41;68.55;98855.28;4956878;28;20067;-62
2022/11/28 12:47:34;;;;;;;144.25;72.10;;;;;;;20.52;68.08;98862.34;4945896;28;20122;-62
2022/11/28 12:50:41;;;;;;;133.43;71.10;;;;;;;20.46;67.90;98858.78;4951922;28;20079;-62
2022/11/28 12:53:32;;;;;;;150.43;71.50;;;;;;;20.30;69.00;98865.38;4927873;29;20047;-63
2022/11/28 12:56:57;;;;;;;126.53;70.70;;;;;;;20.33;69.04;98865.66;4947360;28;20063;-63
2022/11/28 12:59:58;;;;;;;131.93;72.85;;;;;;;20.36;68.91;98872.44;4959901;28;20141;-62
2022/11/28 13:03:02;;;;;;;119.80;69.43;;;;;;;20.23;69.49;98875.72;4930828;29;20110;-63